Aviation Digital Data Service (ADDS)

Output produced by TAFs form (1844 UTC 01 July 2016)
found at http://aviationweather.gov/adds/tafs/
 
KMTJ 011752Z 0118/0218 VRB04KT P6SM VCTS FEW015 BKN060CB BKN100 
     FM011900 24005KT P6SM -SHRA VCTS SCT015 BKN070CB 
     TEMPO 0120/0124 5SM -TSRA SCT015 OVC070CB 
     FM020000 17006KT P6SM VCTS OVC070CB 
     TEMPO 0200/0204 6SM -TSRA SCT035 OVC070CB 
     FM020600 14004KT P6SM -RA SCT035 OVC070 
     FM021200 24004KT P6SM -RA SCT030 OVC050